Terminal Aerodrome Forecast
Issued by NWS Tallahassee, FL

Current Version | Previous Version | Text Only | Print | Product List | Glossary On
Versions: 1 2 3 4 5 6 7 8 9 10 11 12 13 14 15 16 17
000
FTUS42 KTAE 300500 AAA
TAFTLH
TAF AMD
KTLH 300529Z 3005/3106 33004KT P6SM FEW060 SCT250
      AMD NOT SKED 3006/3011=

USA.gov is the U.S. government's official web portal to all federal, state and local government web resources and services.